sensor_id;sensor_type;location;lat;lon;timestamp;P1;durP1;ratioP1;P2;durP2;ratioP2
24681;SDS011;12802;53.390;-2.328;2022-10-22T00:02:21;0.85;;;0.60;;
24681;SDS011;12802;53.390;-2.328;2022-10-22T00:04:47;2.47;;;0.70;;
24681;SDS011;12802;53.390;-2.328;2022-10-22T00:07:14;2.58;;;0.63;;
24681;SDS011;12802;53.390;-2.328;2022-10-22T00:09:41;2.80;;;0.75;;
24681;SDS011;12802;53.390;-2.328;2022-10-22T00:12:07;6.85;;;0.85;;
24681;SDS011;12802;53.390;-2.328;2022-10-22T00:14:33;2.38;;;0.90;;
24681;SDS011;12802;53.390;-2.328;2022-10-22T00:16:59;3.53;;;0.70;;
24681;SDS011;12802;53.390;-2.328;2022-10-22T00:19:27;1.45;;;0.73;;
24681;SDS011;12802;53.390;-2.328;2022-10-22T00:21:53;1.92;;;0.90;;
24681;SDS011;12802;53.390;-2.328;2022-10-22T00:24:19;1.95;;;0.57;;
24681;SDS011;12802;53.390;-2.328;2022-10-22T00:26:45;2.40;;;0.68;;
24681;SDS011;12802;53.390;-2.328;2022-10-22T00:29:10;3.78;;;0.70;;
24681;SDS011;12802;53.390;-2.328;2022-10-22T00:31:36;2.53;;;0.65;;
24681;SDS011;12802;53.390;-2.328;2022-10-22T00:34:02;5.45;;;0.82;;
24681;SDS011;12802;53.390;-2.328;2022-10-22T00:36:28;1.67;;;0.63;;
24681;SDS011;12802;53.390;-2.328;2022-10-22T00:38:54;2.25;;;0.60;;
24681;SDS011;12802;53.390;-2.328;2022-10-22T00:41:19;3.03;;;0.65;;
24681;SDS011;12802;53.390;-2.328;2022-10-22T00:43:52;0.50;;;0.20;;
24681;SDS011;12802;53.390;-2.328;2022-10-22T00:46:19;0.95;;;0.52;;
24681;SDS011;12802;53.390;-2.328;2022-10-22T00:48:45;1.75;;;0.90;;
24681;SDS011;12802;53.390;-2.328;2022-10-22T00:51:11;0.40;;;0.30;;
24681;SDS011;12802;53.390;-2.328;2022-10-22T00:53:44;0.93;;;0.65;;
24681;SDS011;12802;53.390;-2.328;2022-10-22T00:56:14;3.45;;;0.75;;
24681;SDS011;12802;53.390;-2.328;2022-10-22T00:58:44;2.00;;;0.73;;
24681;SDS011;12802;53.390;-2.328;2022-10-22T01:01:18;2.53;;;0.57;;
24681;SDS011;12802;53.390;-2.328;2022-10-22T01:03:53;2.28;;;0.93;;
24681;SDS011;12802;53.390;-2.328;2022-10-22T01:06:29;2.05;;;0.93;;
24681;SDS011;12802;53.390;-2.328;2022-10-22T01:25:11;2.65;;;0.75;;
24681;SDS011;12802;53.390;-2.328;2022-10-22T01:30:41;1.05;;;0.70;;
24681;SDS011;12802;53.390;-2.328;2022-10-22T01:33:09;3.63;;;0.88;;
24681;SDS011;12802;53.390;-2.328;2022-10-22T01:35:38;2.85;;;0.82;;
24681;SDS011;12802;53.390;-2.328;2022-10-22T01:38:08;6.95;;;1.52;;
24681;SDS011;12802;53.390;-2.328;2022-10-22T01:40:38;1.98;;;0.88;;
24681;SDS011;12802;53.390;-2.328;2022-10-22T01:43:06;4.10;;;0.60;;
24681;SDS011;12802;53.390;-2.328;2022-10-22T01:45:35;10.80;;;1.93;;
24681;SDS011;12802;53.390;-2.328;2022-10-22T02:05:06;3.13;;;0.93;;
24681;SDS011;12802;53.390;-2.328;2022-10-22T02:07:46;4.03;;;0.93;;
24681;SDS011;12802;53.390;-2.328;2022-10-22T02:10:19;1.52;;;0.75;;
24681;SDS011;12802;53.390;-2.328;2022-10-22T02:12:47;2.30;;;0.90;;
24681;SDS011;12802;53.390;-2.328;2022-10-22T02:15:16;2.08;;;0.73;;
24681;SDS011;12802;53.390;-2.328;2022-10-22T02:17:44;4.22;;;0.98;;
24681;SDS011;12802;53.390;-2.328;2022-10-22T02:20:13;3.58;;;0.85;;
24681;SDS011;12802;53.390;-2.328;2022-10-22T02:22:42;5.10;;;0.77;;
24681;SDS011;12802;53.390;-2.328;2022-10-22T02:25:08;6.15;;;0.75;;
24681;SDS011;12802;53.390;-2.328;2022-10-22T02:27:57;4.00;;;0.90;;
24681;SDS011;12802;53.390;-2.328;2022-10-22T02:30:36;2.30;;;0.80;;
24681;SDS011;12802;53.390;-2.328;2022-10-22T02:33:24;2.97;;;0.50;;
24681;SDS011;12802;53.390;-2.328;2022-10-22T02:35:54;2.22;;;0.70;;
24681;SDS011;12802;53.390;-2.328;2022-10-22T02:38:21;3.50;;;0.63;;
24681;SDS011;12802;53.390;-2.328;2022-10-22T02:40:49;2.63;;;0.68;;
24681;SDS011;12802;53.390;-2.328;2022-10-22T02:43:16;2.08;;;0.50;;
24681;SDS011;12802;53.390;-2.328;2022-10-22T02:45:42;8.05;;;1.20;;
24681;SDS011;12802;53.390;-2.328;2022-10-22T02:48:09;4.70;;;0.98;;
24681;SDS011;12802;53.390;-2.328;2022-10-22T02:50:34;1.63;;;0.55;;
24681;SDS011;12802;53.390;-2.328;2022-10-22T02:53:00;3.35;;;1.00;;
24681;SDS011;12802;53.390;-2.328;2022-10-22T02:55:26;5.15;;;0.85;;
24681;SDS011;12802;53.390;-2.328;2022-10-22T02:57:52;1.15;;;0.50;;
24681;SDS011;12802;53.390;-2.328;2022-10-22T03:00:18;4.57;;;0.75;;
24681;SDS011;12802;53.390;-2.328;2022-10-22T03:02:44;5.10;;;1.15;;
24681;SDS011;12802;53.390;-2.328;2022-10-22T03:05:10;0.80;;;0.40;;
24681;SDS011;12802;53.390;-2.328;2022-10-22T03:07:36;4.72;;;0.63;;
24681;SDS011;12802;53.390;-2.328;2022-10-22T03:10:02;2.50;;;0.95;;
24681;SDS011;12802;53.390;-2.328;2022-10-22T03:12:28;5.75;;;0.82;;
24681;SDS011;12802;53.390;-2.328;2022-10-22T03:14:54;3.10;;;0.77;;
24681;SDS011;12802;53.390;-2.328;2022-10-22T03:17:19;1.77;;;0.38;;
24681;SDS011;12802;53.390;-2.328;2022-10-22T03:19:45;1.00;;;0.40;;
24681;SDS011;12802;53.390;-2.328;2022-10-22T03:22:15;2.85;;;0.60;;
24681;SDS011;12802;53.390;-2.328;2022-10-22T03:24:45;1.45;;;0.70;;
24681;SDS011;12802;53.390;-2.328;2022-10-22T03:27:14;0.98;;;0.47;;
24681;SDS011;12802;53.390;-2.328;2022-10-22T03:29:42;3.00;;;0.98;;
24681;SDS011;12802;53.390;-2.328;2022-10-22T03:32:09;0.90;;;0.60;;
24681;SDS011;12802;53.390;-2.328;2022-10-22T03:34:34;3.20;;;0.90;;
24681;SDS011;12802;53.390;-2.328;2022-10-22T03:37:00;0.93;;;0.40;;
24681;SDS011;12802;53.390;-2.328;2022-10-22T03:39:27;2.20;;;0.65;;
24681;SDS011;12802;53.390;-2.328;2022-10-22T03:41:54;6.25;;;0.50;;
24681;SDS011;12802;53.390;-2.328;2022-10-22T03:44:20;4.07;;;0.75;;
24681;SDS011;12802;53.390;-2.328;2022-10-22T03:46:47;8.15;;;0.88;;
24681;SDS011;12802;53.390;-2.328;2022-10-22T03:49:12;1.15;;;0.47;;
24681;SDS011;12802;53.390;-2.328;2022-10-22T03:51:38;4.57;;;0.65;;
24681;SDS011;12802;53.390;-2.328;2022-10-22T03:54:04;1.65;;;0.60;;
24681;SDS011;12802;53.390;-2.328;2022-10-22T03:56:30;2.92;;;0.75;;
24681;SDS011;12802;53.390;-2.328;2022-10-22T03:58:56;3.80;;;0.90;;
24681;SDS011;12802;53.390;-2.328;2022-10-22T04:01:24;0.57;;;0.40;;
24681;SDS011;12802;53.390;-2.328;2022-10-22T04:03:50;1.63;;;0.50;;
24681;SDS011;12802;53.390;-2.328;2022-10-22T04:06:16;6.97;;;0.40;;
24681;SDS011;12802;53.390;-2.328;2022-10-22T04:08:42;1.13;;;0.50;;
24681;SDS011;12802;53.390;-2.328;2022-10-22T04:11:09;10.38;;;0.68;;
24681;SDS011;12802;53.390;-2.328;2022-10-22T04:13:36;1.23;;;0.65;;
24681;SDS011;12802;53.390;-2.328;2022-10-22T04:16:06;1.27;;;0.60;;
24681;SDS011;12802;53.390;-2.328;2022-10-22T04:18:37;3.92;;;0.95;;
24681;SDS011;12802;53.390;-2.328;2022-10-22T04:21:03;1.27;;;0.55;;
24681;SDS011;12802;53.390;-2.328;2022-10-22T04:23:30;4.40;;;0.85;;
24681;SDS011;12802;53.390;-2.328;2022-10-22T04:26:03;1.25;;;0.60;;
24681;SDS011;12802;53.390;-2.328;2022-10-22T04:28:30;2.22;;;0.55;;
24681;SDS011;12802;53.390;-2.328;2022-10-22T04:30:56;5.28;;;1.08;;
24681;SDS011;12802;53.390;-2.328;2022-10-22T04:33:22;4.47;;;0.75;;
24681;SDS011;12802;53.390;-2.328;2022-10-22T04:35:48;2.40;;;0.85;;
24681;SDS011;12802;53.390;-2.328;2022-10-22T04:38:14;3.08;;;0.80;;
24681;SDS011;12802;53.390;-2.328;2022-10-22T04:40:40;5.13;;;1.02;;
24681;SDS011;12802;53.390;-2.328;2022-10-22T04:43:06;2.78;;;0.65;;
24681;SDS011;12802;53.390;-2.328;2022-10-22T04:45:32;4.93;;;1.27;;
24681;SDS011;12802;53.390;-2.328;2022-10-22T04:47:58;5.03;;;1.40;;
24681;SDS011;12802;53.390;-2.328;2022-10-22T04:50:25;7.68;;;0.93;;
24681;SDS011;12802;53.390;-2.328;2022-10-22T04:52:51;2.08;;;1.02;;
24681;SDS011;12802;53.390;-2.328;2022-10-22T04:55:17;4.22;;;1.02;;
24681;SDS011;12802;53.390;-2.328;2022-10-22T04:57:43;1.13;;;0.70;;
24681;SDS011;12802;53.390;-2.328;2022-10-22T05:00:09;5.45;;;1.00;;
24681;SDS011;12802;53.390;-2.328;2022-10-22T05:02:35;4.13;;;1.40;;
24681;SDS011;12802;53.390;-2.328;2022-10-22T05:05:01;4.43;;;1.23;;
24681;SDS011;12802;53.390;-2.328;2022-10-22T05:07:27;3.88;;;1.00;;
24681;SDS011;12802;53.390;-2.328;2022-10-22T05:09:52;3.88;;;1.13;;
24681;SDS011;12802;53.390;-2.328;2022-10-22T05:12:18;6.13;;;1.00;;
24681;SDS011;12802;53.390;-2.328;2022-10-22T05:14:44;2.95;;;1.15;;
24681;SDS011;12802;53.390;-2.328;2022-10-22T05:17:10;4.53;;;0.57;;
24681;SDS011;12802;53.390;-2.328;2022-10-22T05:19:36;6.88;;;0.80;;
24681;SDS011;12802;53.390;-2.328;2022-10-22T05:22:02;6.45;;;1.15;;
24681;SDS011;12802;53.390;-2.328;2022-10-22T05:24:30;9.38;;;1.40;;
24681;SDS011;12802;53.390;-2.328;2022-10-22T05:26:57;4.07;;;1.08;;
24681;SDS011;12802;53.390;-2.328;2022-10-22T05:29:24;2.83;;;1.02;;
24681;SDS011;12802;53.390;-2.328;2022-10-22T05:31:51;6.28;;;1.13;;
24681;SDS011;12802;53.390;-2.328;2022-10-22T05:34:17;6.90;;;1.35;;
24681;SDS011;12802;53.390;-2.328;2022-10-22T05:36:44;5.70;;;1.42;;
24681;SDS011;12802;53.390;-2.328;2022-10-22T05:39:10;10.23;;;1.30;;
24681;SDS011;12802;53.390;-2.328;2022-10-22T05:41:36;11.35;;;1.65;;
24681;SDS011;12802;53.390;-2.328;2022-10-22T05:44:02;10.82;;;2.10;;
24681;SDS011;12802;53.390;-2.328;2022-10-22T05:46:29;5.40;;;1.65;;
24681;SDS011;12802;53.390;-2.328;2022-10-22T05:49:00;5.05;;;1.15;;
24681;SDS011;12802;53.390;-2.328;2022-10-22T05:51:28;4.30;;;1.70;;
24681;SDS011;12802;53.390;-2.328;2022-10-22T05:53:59;3.33;;;1.52;;
24681;SDS011;12802;53.390;-2.328;2022-10-22T05:56:27;6.00;;;1.52;;
24681;SDS011;12802;53.390;-2.328;2022-10-22T05:58:55;4.03;;;1.65;;
24681;SDS011;12802;53.390;-2.328;2022-10-22T06:01:25;8.52;;;1.85;;
24681;SDS011;12802;53.390;-2.328;2022-10-22T06:03:57;11.52;;;2.70;;
24681;SDS011;12802;53.390;-2.328;2022-10-22T06:06:26;13.07;;;1.77;;
24681;SDS011;12802;53.390;-2.328;2022-10-22T06:08:55;8.70;;;1.60;;
24681;SDS011;12802;53.390;-2.328;2022-10-22T06:11:24;9.43;;;1.48;;
24681;SDS011;12802;53.390;-2.328;2022-10-22T06:13:50;5.50;;;2.25;;
24681;SDS011;12802;53.390;-2.328;2022-10-22T06:16:16;9.02;;;2.15;;
24681;SDS011;12802;53.390;-2.328;2022-10-22T06:18:42;17.13;;;2.13;;
24681;SDS011;12802;53.390;-2.328;2022-10-22T06:21:12;3.65;;;1.30;;
24681;SDS011;12802;53.390;-2.328;2022-10-22T06:23:39;8.48;;;1.70;;
24681;SDS011;12802;53.390;-2.328;2022-10-22T06:26:06;8.02;;;1.85;;
24681;SDS011;12802;53.390;-2.328;2022-10-22T06:28:33;7.50;;;2.08;;
24681;SDS011;12802;53.390;-2.328;2022-10-22T06:30:59;10.50;;;2.10;;
24681;SDS011;12802;53.390;-2.328;2022-10-22T06:33:26;9.05;;;1.90;;
24681;SDS011;12802;53.390;-2.328;2022-10-22T06:35:53;5.20;;;1.45;;
24681;SDS011;12802;53.390;-2.328;2022-10-22T06:38:19;5.88;;;1.75;;
24681;SDS011;12802;53.390;-2.328;2022-10-22T06:40:45;2.17;;;1.25;;
24681;SDS011;12802;53.390;-2.328;2022-10-22T06:43:11;5.22;;;1.52;;
24681;SDS011;12802;53.390;-2.328;2022-10-22T06:45:38;8.45;;;1.70;;
24681;SDS011;12802;53.390;-2.328;2022-10-22T06:48:05;7.03;;;1.52;;
24681;SDS011;12802;53.390;-2.328;2022-10-22T06:50:34;9.63;;;2.08;;
24681;SDS011;12802;53.390;-2.328;2022-10-22T06:53:00;5.85;;;2.08;;
24681;SDS011;12802;53.390;-2.328;2022-10-22T06:55:26;9.82;;;1.50;;
24681;SDS011;12802;53.390;-2.328;2022-10-22T06:57:51;15.45;;;1.88;;
24681;SDS011;12802;53.390;-2.328;2022-10-22T07:00:18;19.25;;;2.50;;
24681;SDS011;12802;53.390;-2.328;2022-10-22T07:02:49;11.13;;;2.38;;
24681;SDS011;12802;53.390;-2.328;2022-10-22T07:05:17;11.63;;;2.05;;
24681;SDS011;12802;53.390;-2.328;2022-10-22T07:07:43;7.00;;;1.88;;
24681;SDS011;12802;53.390;-2.328;2022-10-22T07:10:09;7.95;;;2.15;;
24681;SDS011;12802;53.390;-2.328;2022-10-22T07:12:34;4.53;;;1.80;;
24681;SDS011;12802;53.390;-2.328;2022-10-22T07:15:00;8.82;;;1.90;;
24681;SDS011;12802;53.390;-2.328;2022-10-22T07:17:26;7.10;;;1.85;;
24681;SDS011;12802;53.390;-2.328;2022-10-22T07:19:51;6.75;;;1.85;;
24681;SDS011;12802;53.390;-2.328;2022-10-22T07:22:17;5.25;;;2.15;;
24681;SDS011;12802;53.390;-2.328;2022-10-22T07:24:43;7.50;;;1.95;;
24681;SDS011;12802;53.390;-2.328;2022-10-22T07:27:09;6.18;;;1.65;;
24681;SDS011;12802;53.390;-2.328;2022-10-22T07:29:34;5.03;;;1.90;;
24681;SDS011;12802;53.390;-2.328;2022-10-22T07:32:00;7.05;;;1.67;;
24681;SDS011;12802;53.390;-2.328;2022-10-22T07:34:26;12.95;;;2.20;;
24681;SDS011;12802;53.390;-2.328;2022-10-22T07:36:52;9.63;;;1.55;;
24681;SDS011;12802;53.390;-2.328;2022-10-22T07:39:17;5.25;;;1.92;;
24681;SDS011;12802;53.390;-2.328;2022-10-22T07:41:43;4.53;;;1.75;;
24681;SDS011;12802;53.390;-2.328;2022-10-22T07:44:09;7.10;;;2.17;;
24681;SDS011;12802;53.390;-2.328;2022-10-22T07:46:35;6.93;;;1.77;;
24681;SDS011;12802;53.390;-2.328;2022-10-22T07:49:01;7.55;;;1.80;;
24681;SDS011;12802;53.390;-2.328;2022-10-22T07:51:26;6.72;;;1.23;;
24681;SDS011;12802;53.390;-2.328;2022-10-22T07:53:52;6.22;;;1.95;;
24681;SDS011;12802;53.390;-2.328;2022-10-22T07:56:18;8.45;;;1.77;;
24681;SDS011;12802;53.390;-2.328;2022-10-22T07:58:44;10.07;;;2.17;;
24681;SDS011;12802;53.390;-2.328;2022-10-22T08:01:10;6.03;;;1.63;;
24681;SDS011;12802;53.390;-2.328;2022-10-22T08:03:36;8.90;;;1.70;;
24681;SDS011;12802;53.390;-2.328;2022-10-22T08:06:02;9.90;;;2.05;;
24681;SDS011;12802;53.390;-2.328;2022-10-22T08:08:28;9.00;;;2.00;;
24681;SDS011;12802;53.390;-2.328;2022-10-22T08:10:54;6.78;;;2.00;;
24681;SDS011;12802;53.390;-2.328;2022-10-22T08:13:22;7.40;;;2.20;;
24681;SDS011;12802;53.390;-2.328;2022-10-22T08:15:48;5.78;;;1.50;;
24681;SDS011;12802;53.390;-2.328;2022-10-22T08:18:14;9.30;;;1.80;;
24681;SDS011;12802;53.390;-2.328;2022-10-22T08:20:40;5.88;;;2.15;;
24681;SDS011;12802;53.390;-2.328;2022-10-22T08:23:06;10.82;;;2.38;;
24681;SDS011;12802;53.390;-2.328;2022-10-22T08:25:32;8.13;;;1.92;;
24681;SDS011;12802;53.390;-2.328;2022-10-22T08:27:58;7.32;;;2.30;;
24681;SDS011;12802;53.390;-2.328;2022-10-22T08:30:24;9.77;;;1.73;;
24681;SDS011;12802;53.390;-2.328;2022-10-22T08:32:51;6.90;;;2.08;;
24681;SDS011;12802;53.390;-2.328;2022-10-22T08:35:17;7.68;;;1.80;;
24681;SDS011;12802;53.390;-2.328;2022-10-22T08:37:43;13.00;;;1.83;;
24681;SDS011;12802;53.390;-2.328;2022-10-22T08:40:09;7.70;;;2.22;;
24681;SDS011;12802;53.390;-2.328;2022-10-22T08:48:37;7.32;;;1.70;;
24681;SDS011;12802;53.390;-2.328;2022-10-22T08:51:12;7.78;;;2.15;;
24681;SDS011;12802;53.390;-2.328;2022-10-22T08:56:22;11.75;;;2.13;;
24681;SDS011;12802;53.390;-2.328;2022-10-22T08:59:03;10.13;;;1.95;;
24681;SDS011;12802;53.390;-2.328;2022-10-22T09:01:44;5.50;;;1.83;;
24681;SDS011;12802;53.390;-2.328;2022-10-22T09:06:50;7.88;;;2.53;;
24681;SDS011;12802;53.390;-2.328;2022-10-22T09:09:17;15.52;;;1.83;;
24681;SDS011;12802;53.390;-2.328;2022-10-22T09:11:45;7.45;;;2.40;;
24681;SDS011;12802;53.390;-2.328;2022-10-22T09:14:17;6.55;;;2.05;;
24681;SDS011;12802;53.390;-2.328;2022-10-22T09:17:19;13.77;;;3.15;;
24681;SDS011;12802;53.390;-2.328;2022-10-22T09:22:44;7.72;;;1.70;;
24681;SDS011;12802;53.390;-2.328;2022-10-22T09:25:20;5.97;;;2.22;;
24681;SDS011;12802;53.390;-2.328;2022-10-22T09:27:48;5.05;;;1.63;;
24681;SDS011;12802;53.390;-2.328;2022-10-22T09:30:16;9.32;;;1.80;;
24681;SDS011;12802;53.390;-2.328;2022-10-22T09:32:44;10.25;;;2.20;;
24681;SDS011;12802;53.390;-2.328;2022-10-22T09:35:12;8.45;;;2.10;;
24681;SDS011;12802;53.390;-2.328;2022-10-22T09:37:49;5.53;;;2.00;;
24681;SDS011;12802;53.390;-2.328;2022-10-22T09:40:18;6.50;;;1.58;;
24681;SDS011;12802;53.390;-2.328;2022-10-22T09:42:44;10.93;;;1.92;;
24681;SDS011;12802;53.390;-2.328;2022-10-22T09:45:15;10.65;;;1.33;;
24681;SDS011;12802;53.390;-2.328;2022-10-22T09:48:01;8.85;;;1.98;;
24681;SDS011;12802;53.390;-2.328;2022-10-22T09:50:42;6.07;;;2.13;;
24681;SDS011;12802;53.390;-2.328;2022-10-22T09:53:14;4.55;;;1.17;;
24681;SDS011;12802;53.390;-2.328;2022-10-22T09:56:07;11.52;;;2.10;;
24681;SDS011;12802;53.390;-2.328;2022-10-22T09:58:44;8.88;;;2.50;;
24681;SDS011;12802;53.390;-2.328;2022-10-22T10:01:24;4.78;;;1.27;;
24681;SDS011;12802;53.390;-2.328;2022-10-22T10:03:52;8.93;;;1.92;;
24681;SDS011;12802;53.390;-2.328;2022-10-22T10:06:21;6.65;;;2.00;;
24681;SDS011;12802;53.390;-2.328;2022-10-22T10:08:48;11.63;;;2.45;;
24681;SDS011;12802;53.390;-2.328;2022-10-22T10:11:22;10.45;;;2.33;;
24681;SDS011;12802;53.390;-2.328;2022-10-22T10:14:00;5.97;;;1.65;;
24681;SDS011;12802;53.390;-2.328;2022-10-22T10:26:54;10.45;;;1.92;;
24681;SDS011;12802;53.390;-2.328;2022-10-22T10:32:19;9.38;;;2.45;;
24681;SDS011;12802;53.390;-2.328;2022-10-22T10:35:15;7.05;;;1.88;;
24681;SDS011;12802;53.390;-2.328;2022-10-22T10:40:39;13.05;;;2.30;;
24681;SDS011;12802;53.390;-2.328;2022-10-22T10:43:32;6.63;;;1.10;;
24681;SDS011;12802;53.390;-2.328;2022-10-22T10:49:09;12.93;;;2.40;;
24681;SDS011;12802;53.390;-2.328;2022-10-22T10:54:33;6.13;;;1.33;;
24681;SDS011;12802;53.390;-2.328;2022-10-22T10:57:12;5.13;;;1.45;;
24681;SDS011;12802;53.390;-2.328;2022-10-22T11:00:09;5.63;;;1.55;;
24681;SDS011;12802;53.390;-2.328;2022-10-22T11:05:36;3.72;;;1.52;;
24681;SDS011;12802;53.390;-2.328;2022-10-22T11:10:48;7.95;;;1.58;;
24681;SDS011;12802;53.390;-2.328;2022-10-22T11:13:35;7.68;;;2.10;;
24681;SDS011;12802;53.390;-2.328;2022-10-22T11:19:02;4.90;;;1.83;;
24681;SDS011;12802;53.390;-2.328;2022-10-22T11:21:58;5.50;;;1.88;;
24681;SDS011;12802;53.390;-2.328;2022-10-22T11:24:52;5.33;;;1.27;;
24681;SDS011;12802;53.390;-2.328;2022-10-22T11:30:13;7.10;;;1.73;;
24681;SDS011;12802;53.390;-2.328;2022-10-22T11:32:42;10.00;;;2.58;;
24681;SDS011;12802;53.390;-2.328;2022-10-22T11:35:15;9.02;;;2.80;;
24681;SDS011;12802;53.390;-2.328;2022-10-22T11:37:46;5.85;;;1.63;;
24681;SDS011;12802;53.390;-2.328;2022-10-22T11:40:13;10.75;;;2.13;;
24681;SDS011;12802;53.390;-2.328;2022-10-22T11:42:51;9.50;;;2.30;;
24681;SDS011;12802;53.390;-2.328;2022-10-22T12:00:55;7.55;;;1.90;;
24681;SDS011;12802;53.390;-2.328;2022-10-22T12:03:38;2.97;;;1.27;;
24681;SDS011;12802;53.390;-2.328;2022-10-22T12:14:06;3.88;;;1.55;;
24681;SDS011;12802;53.390;-2.328;2022-10-22T12:19:40;10.35;;;1.70;;
24681;SDS011;12802;53.390;-2.328;2022-10-22T12:24:52;6.90;;;1.17;;
24681;SDS011;12802;53.390;-2.328;2022-10-22T12:27:22;5.35;;;1.58;;
24681;SDS011;12802;53.390;-2.328;2022-10-22T12:29:54;4.33;;;1.43;;
24681;SDS011;12802;53.390;-2.328;2022-10-22T12:32:21;3.90;;;1.42;;
24681;SDS011;12802;53.390;-2.328;2022-10-22T12:34:48;4.85;;;1.73;;
24681;SDS011;12802;53.390;-2.328;2022-10-22T12:37:16;7.88;;;1.17;;
24681;SDS011;12802;53.390;-2.328;2022-10-22T12:39:43;8.07;;;2.08;;
24681;SDS011;12802;53.390;-2.328;2022-10-22T12:42:14;4.45;;;1.20;;
24681;SDS011;12802;53.390;-2.328;2022-10-22T12:44:44;3.13;;;0.90;;
24681;SDS011;12802;53.390;-2.328;2022-10-22T12:47:14;10.50;;;1.45;;
24681;SDS011;12802;53.390;-2.328;2022-10-22T12:49:41;3.42;;;1.30;;
24681;SDS011;12802;53.390;-2.328;2022-10-22T12:52:12;5.82;;;1.27;;
24681;SDS011;12802;53.390;-2.328;2022-10-22T12:54:45;6.63;;;1.40;;
24681;SDS011;12802;53.390;-2.328;2022-10-22T12:57:14;9.07;;;2.20;;
24681;SDS011;12802;53.390;-2.328;2022-10-22T12:59:43;5.28;;;1.35;;
24681;SDS011;12802;53.390;-2.328;2022-10-22T13:05:01;11.43;;;1.13;;
24681;SDS011;12802;53.390;-2.328;2022-10-22T13:07:45;4.18;;;1.55;;
24681;SDS011;12802;53.390;-2.328;2022-10-22T13:10:17;7.43;;;1.55;;
24681;SDS011;12802;53.390;-2.328;2022-10-22T13:12:56;2.97;;;1.33;;
24681;SDS011;12802;53.390;-2.328;2022-10-22T13:18:00;8.25;;;1.42;;
24681;SDS011;12802;53.390;-2.328;2022-10-22T13:20:26;7.00;;;1.10;;
24681;SDS011;12802;53.390;-2.328;2022-10-22T13:23:01;7.88;;;1.65;;
24681;SDS011;12802;53.390;-2.328;2022-10-22T13:25:29;5.03;;;1.52;;
24681;SDS011;12802;53.390;-2.328;2022-10-22T13:30:52;5.55;;;1.05;;
24681;SDS011;12802;53.390;-2.328;2022-10-22T13:35:56;5.25;;;1.35;;
24681;SDS011;12802;53.390;-2.328;2022-10-22T13:38:24;7.43;;;1.55;;
24681;SDS011;12802;53.390;-2.328;2022-10-22T13:40:51;6.97;;;1.17;;
24681;SDS011;12802;53.390;-2.328;2022-10-22T13:43:17;6.45;;;1.60;;
24681;SDS011;12802;53.390;-2.328;2022-10-22T13:45:44;6.50;;;1.30;;
24681;SDS011;12802;53.390;-2.328;2022-10-22T13:48:11;2.50;;;0.80;;
24681;SDS011;12802;53.390;-2.328;2022-10-22T13:50:46;7.25;;;1.23;;
24681;SDS011;12802;53.390;-2.328;2022-10-22T13:53:14;5.18;;;1.50;;
24681;SDS011;12802;53.390;-2.328;2022-10-22T13:55:43;2.80;;;1.00;;
24681;SDS011;12802;53.390;-2.328;2022-10-22T13:58:10;4.53;;;1.30;;
24681;SDS011;12802;53.390;-2.328;2022-10-22T14:00:37;4.35;;;1.17;;
24681;SDS011;12802;53.390;-2.328;2022-10-22T14:03:05;3.60;;;1.38;;
24681;SDS011;12802;53.390;-2.328;2022-10-22T14:05:36;8.55;;;1.65;;
24681;SDS011;12802;53.390;-2.328;2022-10-22T14:08:02;2.80;;;1.10;;
24681;SDS011;12802;53.390;-2.328;2022-10-22T14:10:28;6.68;;;1.73;;
24681;SDS011;12802;53.390;-2.328;2022-10-22T14:12:53;9.07;;;1.17;;
24681;SDS011;12802;53.390;-2.328;2022-10-22T14:15:20;8.57;;;1.60;;
24681;SDS011;12802;53.390;-2.328;2022-10-22T14:17:49;3.30;;;1.10;;
24681;SDS011;12802;53.390;-2.328;2022-10-22T14:20:22;2.47;;;0.73;;
24681;SDS011;12802;53.390;-2.328;2022-10-22T14:22:55;3.72;;;0.90;;
24681;SDS011;12802;53.390;-2.328;2022-10-22T14:25:24;6.18;;;1.10;;
24681;SDS011;12802;53.390;-2.328;2022-10-22T14:27:51;7.35;;;1.83;;
24681;SDS011;12802;53.390;-2.328;2022-10-22T14:30:18;3.42;;;0.90;;
24681;SDS011;12802;53.390;-2.328;2022-10-22T14:32:46;7.18;;;1.45;;
24681;SDS011;12802;53.390;-2.328;2022-10-22T14:35:14;3.92;;;0.95;;
24681;SDS011;12802;53.390;-2.328;2022-10-22T14:37:42;1.73;;;1.13;;
24681;SDS011;12802;53.390;-2.328;2022-10-22T14:40:08;2.50;;;0.90;;
24681;SDS011;12802;53.390;-2.328;2022-10-22T14:42:38;2.65;;;1.10;;
24681;SDS011;12802;53.390;-2.328;2022-10-22T14:45:08;4.32;;;1.40;;
24681;SDS011;12802;53.390;-2.328;2022-10-22T14:47:45;1.48;;;0.82;;
24681;SDS011;12802;53.390;-2.328;2022-10-22T14:50:11;3.40;;;1.00;;
24681;SDS011;12802;53.390;-2.328;2022-10-22T14:52:38;6.82;;;1.13;;
24681;SDS011;12802;53.390;-2.328;2022-10-22T14:55:05;2.15;;;0.95;;
24681;SDS011;12802;53.390;-2.328;2022-10-22T14:57:31;4.03;;;1.15;;
24681;SDS011;12802;53.390;-2.328;2022-10-22T14:59:57;2.03;;;0.90;;
24681;SDS011;12802;53.390;-2.328;2022-10-22T15:02:23;7.22;;;1.50;;
24681;SDS011;12802;53.390;-2.328;2022-10-22T15:04:50;3.67;;;0.90;;
24681;SDS011;12802;53.390;-2.328;2022-10-22T15:07:16;11.13;;;1.60;;
24681;SDS011;12802;53.390;-2.328;2022-10-22T15:09:41;5.45;;;1.10;;
24681;SDS011;12802;53.390;-2.328;2022-10-22T15:12:07;3.85;;;1.25;;
24681;SDS011;12802;53.390;-2.328;2022-10-22T15:14:33;6.53;;;0.98;;
24681;SDS011;12802;53.390;-2.328;2022-10-22T15:16:59;3.13;;;1.35;;
24681;SDS011;12802;53.390;-2.328;2022-10-22T15:19:24;5.45;;;1.25;;
24681;SDS011;12802;53.390;-2.328;2022-10-22T15:21:50;5.68;;;1.50;;
24681;SDS011;12802;53.390;-2.328;2022-10-22T15:24:16;5.40;;;1.42;;
24681;SDS011;12802;53.390;-2.328;2022-10-22T15:26:42;5.38;;;1.20;;
24681;SDS011;12802;53.390;-2.328;2022-10-22T15:29:08;4.45;;;0.95;;
24681;SDS011;12802;53.390;-2.328;2022-10-22T15:32:07;3.53;;;1.52;;
24681;SDS011;12802;53.390;-2.328;2022-10-22T15:34:30;2.90;;;0.73;;
24681;SDS011;12802;53.390;-2.328;2022-10-22T15:36:58;3.42;;;1.50;;
24681;SDS011;12802;53.390;-2.328;2022-10-22T15:39:25;4.75;;;1.20;;
24681;SDS011;12802;53.390;-2.328;2022-10-22T15:41:51;6.57;;;1.60;;
24681;SDS011;12802;53.390;-2.328;2022-10-22T15:44:22;5.07;;;1.85;;
24681;SDS011;12802;53.390;-2.328;2022-10-22T15:46:50;1.95;;;0.98;;
24681;SDS011;12802;53.390;-2.328;2022-10-22T15:49:18;5.78;;;1.98;;
24681;SDS011;12802;53.390;-2.328;2022-10-22T15:51:45;4.32;;;1.30;;
24681;SDS011;12802;53.390;-2.328;2022-10-22T15:54:15;3.05;;;1.00;;
24681;SDS011;12802;53.390;-2.328;2022-10-22T15:56:42;5.35;;;1.23;;
24681;SDS011;12802;53.390;-2.328;2022-10-22T15:59:10;3.92;;;1.40;;
24681;SDS011;12802;53.390;-2.328;2022-10-22T16:01:37;3.17;;;1.23;;
24681;SDS011;12802;53.390;-2.328;2022-10-22T16:04:04;1.90;;;0.93;;
24681;SDS011;12802;53.390;-2.328;2022-10-22T16:06:34;5.22;;;1.00;;
24681;SDS011;12802;53.390;-2.328;2022-10-22T16:09:03;6.28;;;1.30;;
24681;SDS011;12802;53.390;-2.328;2022-10-22T16:11:34;2.85;;;1.25;;
24681;SDS011;12802;53.390;-2.328;2022-10-22T16:14:02;2.53;;;0.80;;
24681;SDS011;12802;53.390;-2.328;2022-10-22T16:16:29;3.40;;;1.02;;
24681;SDS011;12802;53.390;-2.328;2022-10-22T16:18:56;3.58;;;0.90;;
24681;SDS011;12802;53.390;-2.328;2022-10-22T16:21:23;5.70;;;1.58;;
24681;SDS011;12802;53.390;-2.328;2022-10-22T16:23:49;4.88;;;1.30;;
24681;SDS011;12802;53.390;-2.328;2022-10-22T16:26:16;6.10;;;1.17;;
24681;SDS011;12802;53.390;-2.328;2022-10-22T16:28:42;4.68;;;1.20;;
24681;SDS011;12802;53.390;-2.328;2022-10-22T16:31:09;3.10;;;1.30;;
24681;SDS011;12802;53.390;-2.328;2022-10-22T16:33:37;6.25;;;1.40;;
24681;SDS011;12802;53.390;-2.328;2022-10-22T16:36:08;9.15;;;2.17;;
24681;SDS011;12802;53.390;-2.328;2022-10-22T16:38:35;6.88;;;1.38;;
24681;SDS011;12802;53.390;-2.328;2022-10-22T16:41:08;4.20;;;1.65;;
24681;SDS011;12802;53.390;-2.328;2022-10-22T16:43:36;1.70;;;0.85;;
24681;SDS011;12802;53.390;-2.328;2022-10-22T16:46:02;4.57;;;1.42;;
24681;SDS011;12802;53.390;-2.328;2022-10-22T16:48:30;5.10;;;1.30;;